sensor_id;sensor_type;location;lat;lon;timestamp;pressure;altitude;pressure_sealevel;temperature;humidity
60642;BME280;46837;52.446;-1.930;2023-04-08T00:00:09;100948.61;;;7.01;64.95
60642;BME280;46837;52.446;-1.930;2023-04-08T00:01:09;100949.04;;;6.88;65.37
60642;BME280;46837;52.446;-1.930;2023-04-08T00:02:09;100949.30;;;6.86;65.53
60642;BME280;46837;52.446;-1.930;2023-04-08T00:03:09;100951.56;;;6.78;65.83
60642;BME280;46837;52.446;-1.930;2023-04-08T00:04:09;100951.19;;;6.69;66.12
60642;BME280;46837;52.446;-1.930;2023-04-08T00:05:09;100950.62;;;6.67;66.21
60642;BME280;46837;52.446;-1.930;2023-04-08T00:06:09;100949.29;;;6.64;66.32
60642;BME280;46837;52.446;-1.930;2023-04-08T00:07:09;100949.48;;;6.67;66.22
60642;BME280;46837;52.446;-1.930;2023-04-08T00:08:09;100950.30;;;6.71;66.08
60642;BME280;46837;52.446;-1.930;2023-04-08T00:09:09;100953.25;;;6.73;65.90
60642;BME280;46837;52.446;-1.930;2023-04-08T00:10:09;100953.17;;;6.77;65.83
60642;BME280;46837;52.446;-1.930;2023-04-08T00:11:09;100951.10;;;6.79;65.77
60642;BME280;46837;52.446;-1.930;2023-04-08T00:12:09;100952.62;;;6.80;65.70
60642;BME280;46837;52.446;-1.930;2023-04-08T00:13:09;100948.88;;;6.83;65.64
60642;BME280;46837;52.446;-1.930;2023-04-08T00:14:09;100947.52;;;6.88;65.47
60642;BME280;46837;52.446;-1.930;2023-04-08T00:15:09;100951.52;;;6.89;65.41
60642;BME280;46837;52.446;-1.930;2023-04-08T00:16:09;100948.75;;;6.89;65.34
60642;BME280;46837;52.446;-1.930;2023-04-08T00:17:09;100948.31;;;6.91;65.31
60642;BME280;46837;52.446;-1.930;2023-04-08T00:18:09;100948.82;;;6.88;65.35
60642;BME280;46837;52.446;-1.930;2023-04-08T00:19:09;100948.35;;;6.89;65.36
60642;BME280;46837;52.446;-1.930;2023-04-08T00:20:09;100949.68;;;6.89;65.39
60642;BME280;46837;52.446;-1.930;2023-04-08T00:21:09;100953.29;;;6.92;65.26
60642;BME280;46837;52.446;-1.930;2023-04-08T00:22:09;100950.50;;;6.93;65.17
60642;BME280;46837;52.446;-1.930;2023-04-08T00:23:09;100952.70;;;6.94;65.05
60642;BME280;46837;52.446;-1.930;2023-04-08T00:24:09;100952.64;;;6.90;65.10
60642;BME280;46837;52.446;-1.930;2023-04-08T00:25:11;100954.28;;;6.94;65.06
60642;BME280;46837;52.446;-1.930;2023-04-08T00:26:09;100953.01;;;6.92;65.10
60642;BME280;46837;52.446;-1.930;2023-04-08T00:27:09;100949.80;;;6.93;65.12
60642;BME280;46837;52.446;-1.930;2023-04-08T00:28:09;100949.95;;;6.94;65.08
60642;BME280;46837;52.446;-1.930;2023-04-08T00:29:09;100946.73;;;6.96;65.16
60642;BME280;46837;52.446;-1.930;2023-04-08T00:30:09;100950.55;;;6.95;65.32
60642;BME280;46837;52.446;-1.930;2023-04-08T00:31:09;100949.20;;;6.95;65.20
60642;BME280;46837;52.446;-1.930;2023-04-08T00:32:09;100950.49;;;6.94;65.31
60642;BME280;46837;52.446;-1.930;2023-04-08T00:33:09;100951.56;;;6.98;65.19
60642;BME280;46837;52.446;-1.930;2023-04-08T00:34:09;100949.55;;;6.94;65.22
60642;BME280;46837;52.446;-1.930;2023-04-08T00:35:09;100949.10;;;6.92;65.27
60642;BME280;46837;52.446;-1.930;2023-04-08T00:36:09;100948.59;;;6.95;65.15
60642;BME280;46837;52.446;-1.930;2023-04-08T00:37:09;100947.55;;;6.94;65.22
60642;BME280;46837;52.446;-1.930;2023-04-08T00:38:09;100951.69;;;6.93;65.28
60642;BME280;46837;52.446;-1.930;2023-04-08T00:39:09;100952.43;;;6.90;65.45
60642;BME280;46837;52.446;-1.930;2023-04-08T00:40:09;100951.13;;;6.90;65.42
60642;BME280;46837;52.446;-1.930;2023-04-08T00:41:09;100952.29;;;6.91;65.37
60642;BME280;46837;52.446;-1.930;2023-04-08T00:42:09;100952.76;;;6.92;65.28
60642;BME280;46837;52.446;-1.930;2023-04-08T00:43:09;100952.44;;;6.94;65.22
60642;BME280;46837;52.446;-1.930;2023-04-08T00:44:09;100951.90;;;6.93;65.21
60642;BME280;46837;52.446;-1.930;2023-04-08T00:45:09;100954.65;;;6.94;65.17
60642;BME280;46837;52.446;-1.930;2023-04-08T00:46:09;100953.64;;;6.93;65.16
60642;BME280;46837;52.446;-1.930;2023-04-08T00:47:11;100955.11;;;6.93;65.24
60642;BME280;46837;52.446;-1.930;2023-04-08T00:48:09;100956.18;;;6.92;65.19
60642;BME280;46837;52.446;-1.930;2023-04-08T00:49:09;100956.21;;;6.93;65.23
60642;BME280;46837;52.446;-1.930;2023-04-08T00:50:09;100953.07;;;6.93;65.16
60642;BME280;46837;52.446;-1.930;2023-04-08T00:51:09;100954.69;;;6.92;65.12
60642;BME280;46837;52.446;-1.930;2023-04-08T00:52:09;100953.13;;;6.90;65.21
60642;BME280;46837;52.446;-1.930;2023-04-08T00:53:09;100954.71;;;6.90;65.21
60642;BME280;46837;52.446;-1.930;2023-04-08T00:54:09;100956.48;;;6.92;65.21
60642;BME280;46837;52.446;-1.930;2023-04-08T00:55:09;100956.06;;;6.92;65.22
60642;BME280;46837;52.446;-1.930;2023-04-08T00:56:09;100955.07;;;6.91;65.23
60642;BME280;46837;52.446;-1.930;2023-04-08T00:57:09;100954.11;;;6.92;65.22
60642;BME280;46837;52.446;-1.930;2023-04-08T00:58:09;100954.24;;;6.91;65.16
60642;BME280;46837;52.446;-1.930;2023-04-08T00:59:09;100954.55;;;6.92;65.13
60642;BME280;46837;52.446;-1.930;2023-04-08T01:00:09;100957.81;;;6.90;65.10
60642;BME280;46837;52.446;-1.930;2023-04-08T01:01:22;100954.82;;;6.87;65.20
60642;BME280;46837;52.446;-1.930;2023-04-08T01:02:18;100953.61;;;6.86;65.22
60642;BME280;46837;52.446;-1.930;2023-04-08T01:03:17;100958.29;;;6.87;65.11
60642;BME280;46837;52.446;-1.930;2023-04-08T01:08:09;100964.71;;;6.83;65.20
60642;BME280;46837;52.446;-1.930;2023-04-08T01:09:09;100963.16;;;6.81;65.29
60642;BME280;46837;52.446;-1.930;2023-04-08T01:10:14;100961.78;;;6.78;65.36
60642;BME280;46837;52.446;-1.930;2023-04-08T01:11:10;100962.76;;;6.76;65.49
60642;BME280;46837;52.446;-1.930;2023-04-08T01:12:09;100963.50;;;6.76;65.53
60642;BME280;46837;52.446;-1.930;2023-04-08T01:13:11;100964.40;;;6.75;65.47
60642;BME280;46837;52.446;-1.930;2023-04-08T01:14:09;100960.08;;;6.74;65.56
60642;BME280;46837;52.446;-1.930;2023-04-08T01:15:10;100963.14;;;6.75;65.48
60642;BME280;46837;52.446;-1.930;2023-04-08T01:16:09;100964.41;;;6.77;65.47
60642;BME280;46837;52.446;-1.930;2023-04-08T01:17:09;100961.71;;;6.74;65.57
60642;BME280;46837;52.446;-1.930;2023-04-08T01:18:09;100963.87;;;6.74;65.61
60642;BME280;46837;52.446;-1.930;2023-04-08T01:19:09;100963.64;;;6.68;65.69
60642;BME280;46837;52.446;-1.930;2023-04-08T01:20:09;100963.96;;;6.68;65.72
60642;BME280;46837;52.446;-1.930;2023-04-08T01:21:09;100962.56;;;6.67;65.70
60642;BME280;46837;52.446;-1.930;2023-04-08T01:24:19;100966.29;;;6.59;65.93
60642;BME280;46837;52.446;-1.930;2023-04-08T01:25:15;100963.73;;;6.59;65.95
60642;BME280;46837;52.446;-1.930;2023-04-08T01:26:11;100963.21;;;6.60;65.81
60642;BME280;46837;52.446;-1.930;2023-04-08T01:27:09;100964.24;;;6.60;65.77
60642;BME280;46837;52.446;-1.930;2023-04-08T01:28:12;100962.72;;;6.56;65.73
60642;BME280;46837;52.446;-1.930;2023-04-08T01:29:09;100961.08;;;6.54;65.86
60642;BME280;46837;52.446;-1.930;2023-04-08T01:30:09;100962.86;;;6.57;65.79
60642;BME280;46837;52.446;-1.930;2023-04-08T01:31:09;100964.62;;;6.56;65.70
60642;BME280;46837;52.446;-1.930;2023-04-08T01:32:09;100966.57;;;6.56;65.73
60642;BME280;46837;52.446;-1.930;2023-04-08T01:33:10;100962.63;;;6.54;65.83
60642;BME280;46837;52.446;-1.930;2023-04-08T01:34:09;100964.59;;;6.54;65.75
60642;BME280;46837;52.446;-1.930;2023-04-08T01:35:09;100966.26;;;6.53;65.74
60642;BME280;46837;52.446;-1.930;2023-04-08T01:36:09;100966.79;;;6.51;65.77
60642;BME280;46837;52.446;-1.930;2023-04-08T01:37:09;100966.82;;;6.47;65.88
60642;BME280;46837;52.446;-1.930;2023-04-08T01:38:10;100973.14;;;6.44;65.93
60642;BME280;46837;52.446;-1.930;2023-04-08T01:39:09;100975.67;;;6.42;66.05
60642;BME280;46837;52.446;-1.930;2023-04-08T01:40:09;100972.30;;;6.38;66.05
60642;BME280;46837;52.446;-1.930;2023-04-08T01:41:09;100969.07;;;6.36;66.12
60642;BME280;46837;52.446;-1.930;2023-04-08T01:42:09;100966.61;;;6.36;66.13
60642;BME280;46837;52.446;-1.930;2023-04-08T01:43:09;100967.46;;;6.35;66.12
60642;BME280;46837;52.446;-1.930;2023-04-08T01:44:09;100969.04;;;6.33;66.22
60642;BME280;46837;52.446;-1.930;2023-04-08T01:45:09;100966.12;;;6.32;66.22
60642;BME280;46837;52.446;-1.930;2023-04-08T01:46:09;100966.89;;;6.31;66.30
60642;BME280;46837;52.446;-1.930;2023-04-08T01:47:09;100969.50;;;6.31;66.38
60642;BME280;46837;52.446;-1.930;2023-04-08T01:48:09;100968.85;;;6.31;66.33
60642;BME280;46837;52.446;-1.930;2023-04-08T01:49:09;100967.56;;;6.25;66.44
60642;BME280;46837;52.446;-1.930;2023-04-08T01:50:09;100964.77;;;6.24;66.45
60642;BME280;46837;52.446;-1.930;2023-04-08T01:51:09;100967.11;;;6.23;66.53
60642;BME280;46837;52.446;-1.930;2023-04-08T01:52:09;100965.88;;;6.20;66.56
60642;BME280;46837;52.446;-1.930;2023-04-08T01:53:09;100968.80;;;6.15;66.63
60642;BME280;46837;52.446;-1.930;2023-04-08T01:54:09;100969.90;;;6.15;66.66
60642;BME280;46837;52.446;-1.930;2023-04-08T01:55:09;100968.11;;;6.15;66.68
60642;BME280;46837;52.446;-1.930;2023-04-08T01:56:11;100973.27;;;6.14;66.74
60642;BME280;46837;52.446;-1.930;2023-04-08T01:57:11;100976.53;;;6.08;66.88
60642;BME280;46837;52.446;-1.930;2023-04-08T01:58:10;100975.18;;;6.08;66.96
60642;BME280;46837;52.446;-1.930;2023-04-08T01:59:10;100971.96;;;6.11;66.93
60642;BME280;46837;52.446;-1.930;2023-04-08T02:00:09;100976.43;;;6.09;66.89
60642;BME280;46837;52.446;-1.930;2023-04-08T02:01:12;100979.50;;;6.07;66.91
60642;BME280;46837;52.446;-1.930;2023-04-08T02:02:09;100981.55;;;6.04;66.94
60642;BME280;46837;52.446;-1.930;2023-04-08T02:03:09;100978.26;;;6.01;67.11
60642;BME280;46837;52.446;-1.930;2023-04-08T02:04:09;100976.53;;;6.03;67.09
60642;BME280;46837;52.446;-1.930;2023-04-08T02:05:09;100980.18;;;6.00;67.10
60642;BME280;46837;52.446;-1.930;2023-04-08T02:06:09;100980.56;;;6.03;66.99
60642;BME280;46837;52.446;-1.930;2023-04-08T02:07:09;100980.48;;;6.02;66.97
60642;BME280;46837;52.446;-1.930;2023-04-08T02:08:09;100979.64;;;6.02;66.96
60642;BME280;46837;52.446;-1.930;2023-04-08T02:09:09;100977.37;;;6.01;67.00
60642;BME280;46837;52.446;-1.930;2023-04-08T02:10:09;100978.60;;;6.03;66.94
60642;BME280;46837;52.446;-1.930;2023-04-08T02:11:09;100979.86;;;6.00;67.00
60642;BME280;46837;52.446;-1.930;2023-04-08T02:12:09;100983.12;;;6.03;66.95
60642;BME280;46837;52.446;-1.930;2023-04-08T02:13:09;100978.93;;;6.03;66.91
60642;BME280;46837;52.446;-1.930;2023-04-08T02:14:09;100975.64;;;6.00;66.91
60642;BME280;46837;52.446;-1.930;2023-04-08T02:15:09;100976.20;;;5.98;66.91
60642;BME280;46837;52.446;-1.930;2023-04-08T02:16:18;100977.26;;;5.97;66.99
60642;BME280;46837;52.446;-1.930;2023-04-08T02:17:16;100978.76;;;5.95;66.97
60642;BME280;46837;52.446;-1.930;2023-04-08T02:18:16;100976.46;;;5.91;67.13
60642;BME280;46837;52.446;-1.930;2023-04-08T02:19:13;100975.17;;;5.93;66.98
60642;BME280;46837;52.446;-1.930;2023-04-08T02:20:17;100973.72;;;5.90;67.01
60642;BME280;46837;52.446;-1.930;2023-04-08T02:21:12;100972.41;;;5.87;67.02
60642;BME280;46837;52.446;-1.930;2023-04-08T02:22:36;100974.89;;;5.88;67.08
60642;BME280;46837;52.446;-1.930;2023-04-08T02:24:10;100977.91;;;5.84;67.16
60642;BME280;46837;52.446;-1.930;2023-04-08T02:25:12;100980.95;;;5.85;67.20
60642;BME280;46837;52.446;-1.930;2023-04-08T02:26:12;100981.57;;;5.86;67.21
60642;BME280;46837;52.446;-1.930;2023-04-08T02:27:09;100979.18;;;5.86;67.25
60642;BME280;46837;52.446;-1.930;2023-04-08T02:28:09;100981.68;;;5.85;67.23
60642;BME280;46837;52.446;-1.930;2023-04-08T02:29:13;100981.86;;;5.81;67.31
60642;BME280;46837;52.446;-1.930;2023-04-08T02:30:09;100981.23;;;5.77;67.55
60642;BME280;46837;52.446;-1.930;2023-04-08T02:31:11;100982.63;;;5.78;67.66
60642;BME280;46837;52.446;-1.930;2023-04-08T02:32:10;100980.62;;;5.76;67.68
60642;BME280;46837;52.446;-1.930;2023-04-08T02:33:09;100981.54;;;5.78;67.64
60642;BME280;46837;52.446;-1.930;2023-04-08T02:34:09;100985.73;;;5.75;67.74
60642;BME280;46837;52.446;-1.930;2023-04-08T02:35:09;100986.60;;;5.73;67.74
60642;BME280;46837;52.446;-1.930;2023-04-08T02:36:09;100988.44;;;5.72;67.79
60642;BME280;46837;52.446;-1.930;2023-04-08T02:37:09;100987.15;;;5.75;67.79
60642;BME280;46837;52.446;-1.930;2023-04-08T02:38:09;100986.62;;;5.77;67.74
60642;BME280;46837;52.446;-1.930;2023-04-08T02:39:09;100993.18;;;5.77;67.72
60642;BME280;46837;52.446;-1.930;2023-04-08T02:41:09;100993.98;;;5.72;67.74
60642;BME280;46837;52.446;-1.930;2023-04-08T02:42:09;100995.17;;;5.72;67.76
60642;BME280;46837;52.446;-1.930;2023-04-08T02:43:09;100994.13;;;5.70;67.81
60642;BME280;46837;52.446;-1.930;2023-04-08T02:44:09;100997.23;;;5.72;67.80
60642;BME280;46837;52.446;-1.930;2023-04-08T02:45:09;100999.57;;;5.77;67.67
60642;BME280;46837;52.446;-1.930;2023-04-08T02:46:09;100995.77;;;5.75;67.53
60642;BME280;46837;52.446;-1.930;2023-04-08T02:47:09;100999.44;;;5.71;67.61
60642;BME280;46837;52.446;-1.930;2023-04-08T02:48:09;100996.80;;;5.71;67.57
60642;BME280;46837;52.446;-1.930;2023-04-08T02:49:09;101000.79;;;5.68;67.52
60642;BME280;46837;52.446;-1.930;2023-04-08T02:50:09;101000.97;;;5.66;67.59
60642;BME280;46837;52.446;-1.930;2023-04-08T02:51:09;101000.59;;;5.67;67.73
60642;BME280;46837;52.446;-1.930;2023-04-08T02:52:09;101000.18;;;5.65;67.77
60642;BME280;46837;52.446;-1.930;2023-04-08T02:53:10;101003.67;;;5.68;67.80
60642;BME280;46837;52.446;-1.930;2023-04-08T02:54:09;101000.67;;;5.65;67.78
60642;BME280;46837;52.446;-1.930;2023-04-08T02:55:11;101002.63;;;5.64;67.82
60642;BME280;46837;52.446;-1.930;2023-04-08T02:56:10;100996.94;;;5.64;67.91
60642;BME280;46837;52.446;-1.930;2023-04-08T02:57:09;101000.20;;;5.63;67.93
60642;BME280;46837;52.446;-1.930;2023-04-08T02:58:09;101000.04;;;5.63;67.88
60642;BME280;46837;52.446;-1.930;2023-04-08T02:59:09;101001.69;;;5.61;67.95
60642;BME280;46837;52.446;-1.930;2023-04-08T03:00:09;101000.44;;;5.60;67.93
60642;BME280;46837;52.446;-1.930;2023-04-08T03:01:09;101004.30;;;5.60;67.93
60642;BME280;46837;52.446;-1.930;2023-04-08T03:02:09;101006.58;;;5.60;67.82
60642;BME280;46837;52.446;-1.930;2023-04-08T03:03:10;101007.53;;;5.59;67.82
60642;BME280;46837;52.446;-1.930;2023-04-08T03:04:09;101010.41;;;5.57;67.90
60642;BME280;46837;52.446;-1.930;2023-04-08T03:05:09;101010.44;;;5.58;67.90
60642;BME280;46837;52.446;-1.930;2023-04-08T03:06:09;101006.85;;;5.55;67.91
60642;BME280;46837;52.446;-1.930;2023-04-08T03:07:09;101011.17;;;5.54;67.94
60642;BME280;46837;52.446;-1.930;2023-04-08T03:08:09;101007.25;;;5.55;67.88
60642;BME280;46837;52.446;-1.930;2023-04-08T03:09:09;101011.15;;;5.52;67.87
60642;BME280;46837;52.446;-1.930;2023-04-08T03:10:09;101010.04;;;5.47;67.98
60642;BME280;46837;52.446;-1.930;2023-04-08T03:11:09;101008.21;;;5.40;68.18
60642;BME280;46837;52.446;-1.930;2023-04-08T03:12:09;101007.86;;;5.39;68.39
60642;BME280;46837;52.446;-1.930;2023-04-08T03:13:09;101010.27;;;5.38;68.49
60642;BME280;46837;52.446;-1.930;2023-04-08T03:14:09;101011.21;;;5.38;68.54
60642;BME280;46837;52.446;-1.930;2023-04-08T03:15:09;101008.11;;;5.36;68.62
60642;BME280;46837;52.446;-1.930;2023-04-08T03:16:09;101009.46;;;5.41;68.61
60642;BME280;46837;52.446;-1.930;2023-04-08T03:17:09;101005.96;;;5.41;68.53
60642;BME280;46837;52.446;-1.930;2023-04-08T03:18:09;101009.96;;;5.40;68.54
60642;BME280;46837;52.446;-1.930;2023-04-08T03:19:09;101013.40;;;5.38;68.60
60642;BME280;46837;52.446;-1.930;2023-04-08T03:20:09;101011.19;;;5.36;68.64
60642;BME280;46837;52.446;-1.930;2023-04-08T03:21:09;101010.17;;;5.36;68.60
60642;BME280;46837;52.446;-1.930;2023-04-08T03:22:09;101011.27;;;5.33;68.56
60642;BME280;46837;52.446;-1.930;2023-04-08T03:23:09;101008.19;;;5.35;68.61
60642;BME280;46837;52.446;-1.930;2023-04-08T03:24:09;101009.78;;;5.34;68.62
60642;BME280;46837;52.446;-1.930;2023-04-08T03:25:09;101010.34;;;5.33;68.66
60642;BME280;46837;52.446;-1.930;2023-04-08T03:26:09;101011.73;;;5.34;68.48
60642;BME280;46837;52.446;-1.930;2023-04-08T03:27:09;101010.56;;;5.34;68.42
60642;BME280;46837;52.446;-1.930;2023-04-08T03:28:09;101011.45;;;5.31;68.23
60642;BME280;46837;52.446;-1.930;2023-04-08T03:29:09;101010.07;;;5.28;68.10
60642;BME280;46837;52.446;-1.930;2023-04-08T03:30:09;101006.09;;;5.24;68.16
60642;BME280;46837;52.446;-1.930;2023-04-08T03:31:09;101010.54;;;5.25;68.21
60642;BME280;46837;52.446;-1.930;2023-04-08T03:32:09;101008.73;;;5.20;68.21
60642;BME280;46837;52.446;-1.930;2023-04-08T03:33:09;101007.33;;;5.18;68.25
60642;BME280;46837;52.446;-1.930;2023-04-08T03:34:09;101009.70;;;5.17;68.28
60642;BME280;46837;52.446;-1.930;2023-04-08T03:35:09;101011.89;;;5.17;68.30
60642;BME280;46837;52.446;-1.930;2023-04-08T03:36:09;101010.41;;;5.15;68.34
60642;BME280;46837;52.446;-1.930;2023-04-08T03:37:09;101009.25;;;5.13;68.33
60642;BME280;46837;52.446;-1.930;2023-04-08T03:38:09;101011.83;;;5.12;68.46
60642;BME280;46837;52.446;-1.930;2023-04-08T03:39:09;101012.36;;;5.12;68.48
60642;BME280;46837;52.446;-1.930;2023-04-08T03:40:09;101010.29;;;5.12;68.57
60642;BME280;46837;52.446;-1.930;2023-04-08T03:41:09;101012.80;;;5.12;68.54
60642;BME280;46837;52.446;-1.930;2023-04-08T03:42:09;101012.65;;;5.11;68.58
60642;BME280;46837;52.446;-1.930;2023-04-08T03:43:09;101011.54;;;5.12;68.60
60642;BME280;46837;52.446;-1.930;2023-04-08T03:44:09;101011.49;;;5.12;68.51
60642;BME280;46837;52.446;-1.930;2023-04-08T03:45:09;101012.41;;;5.11;68.55
60642;BME280;46837;52.446;-1.930;2023-04-08T03:46:09;101015.55;;;5.13;68.55
60642;BME280;46837;52.446;-1.930;2023-04-08T03:47:09;101009.12;;;5.11;68.52
60642;BME280;46837;52.446;-1.930;2023-04-08T03:48:09;101008.03;;;5.14;68.49
60642;BME280;46837;52.446;-1.930;2023-04-08T03:49:09;101010.91;;;5.10;68.33
60642;BME280;46837;52.446;-1.930;2023-04-08T03:50:09;101012.38;;;5.06;68.46
60642;BME280;46837;52.446;-1.930;2023-04-08T03:51:09;101011.43;;;5.08;68.54
60642;BME280;46837;52.446;-1.930;2023-04-08T03:52:09;101010.59;;;5.06;68.56
60642;BME280;46837;52.446;-1.930;2023-04-08T03:53:09;101010.59;;;5.06;68.52
60642;BME280;46837;52.446;-1.930;2023-04-08T03:54:09;101012.49;;;5.07;68.60
60642;BME280;46837;52.446;-1.930;2023-04-08T03:55:09;101010.82;;;5.03;68.65
60642;BME280;46837;52.446;-1.930;2023-04-08T03:56:09;101010.98;;;4.99;68.71
60642;BME280;46837;52.446;-1.930;2023-04-08T03:57:09;101014.52;;;4.99;68.78
60642;BME280;46837;52.446;-1.930;2023-04-08T03:58:09;101016.36;;;4.98;68.87
60642;BME280;46837;52.446;-1.930;2023-04-08T03:59:09;101011.68;;;4.95;68.81
60642;BME280;46837;52.446;-1.930;2023-04-08T04:00:09;101013.28;;;4.94;68.93
60642;BME280;46837;52.446;-1.930;2023-04-08T04:01:09;101013.80;;;4.90;69.04
60642;BME280;46837;52.446;-1.930;2023-04-08T04:02:09;101014.49;;;4.90;69.16
60642;BME280;46837;52.446;-1.930;2023-04-08T04:03:09;101012.62;;;4.94;69.17
60642;BME280;46837;52.446;-1.930;2023-04-08T04:04:09;101016.30;;;4.95;69.10
60642;BME280;46837;52.446;-1.930;2023-04-08T04:05:09;101013.38;;;4.95;69.04
60642;BME280;46837;52.446;-1.930;2023-04-08T04:06:09;101015.96;;;4.93;69.09
60642;BME280;46837;52.446;-1.930;2023-04-08T04:07:09;101016.16;;;4.89;69.12
60642;BME280;46837;52.446;-1.930;2023-04-08T04:08:09;101015.46;;;4.90;69.09
60642;BME280;46837;52.446;-1.930;2023-04-08T04:09:09;101015.69;;;4.92;69.01
60642;BME280;46837;52.446;-1.930;2023-04-08T04:10:09;101015.94;;;4.87;69.00
60642;BME280;46837;52.446;-1.930;2023-04-08T04:11:09;101015.93;;;4.84;69.05
60642;BME280;46837;52.446;-1.930;2023-04-08T04:12:09;101017.44;;;4.84;69.14
60642;BME280;46837;52.446;-1.930;2023-04-08T04:13:09;101017.59;;;4.80;69.25
60642;BME280;46837;52.446;-1.930;2023-04-08T04:14:09;101019.09;;;4.81;69.33
60642;BME280;46837;52.446;-1.930;2023-04-08T04:15:09;101018.69;;;4.76;69.47
60642;BME280;46837;52.446;-1.930;2023-04-08T04:16:09;101019.21;;;4.77;69.52
60642;BME280;46837;52.446;-1.930;2023-04-08T04:17:09;101019.47;;;4.79;69.44
60642;BME280;46837;52.446;-1.930;2023-04-08T04:18:09;101021.43;;;4.78;69.46
60642;BME280;46837;52.446;-1.930;2023-04-08T04:19:09;101023.84;;;4.76;69.39
60642;BME280;46837;52.446;-1.930;2023-04-08T04:20:09;101020.63;;;4.72;69.43
60642;BME280;46837;52.446;-1.930;2023-04-08T04:21:09;101018.64;;;4.68;69.65
60642;BME280;46837;52.446;-1.930;2023-04-08T04:22:09;101023.10;;;4.69;69.61
60642;BME280;46837;52.446;-1.930;2023-04-08T04:23:09;101019.93;;;4.68;69.70
60642;BME280;46837;52.446;-1.930;2023-04-08T04:24:09;101023.26;;;4.69;69.68
60642;BME280;46837;52.446;-1.930;2023-04-08T04:25:09;101021.07;;;4.59;69.91
60642;BME280;46837;52.446;-1.930;2023-04-08T04:26:09;101021.12;;;4.57;70.15
60642;BME280;46837;52.446;-1.930;2023-04-08T04:27:09;101022.95;;;4.62;70.07
60642;BME280;46837;52.446;-1.930;2023-04-08T04:28:09;101022.96;;;4.65;70.04
60642;BME280;46837;52.446;-1.930;2023-04-08T04:29:09;101024.72;;;4.63;69.85
60642;BME280;46837;52.446;-1.930;2023-04-08T04:30:09;101023.54;;;4.65;69.90
60642;BME280;46837;52.446;-1.930;2023-04-08T04:31:16;101021.26;;;4.66;69.82
60642;BME280;46837;52.446;-1.930;2023-04-08T04:32:09;101023.66;;;4.65;69.80
60642;BME280;46837;52.446;-1.930;2023-04-08T04:33:09;101024.43;;;4.64;69.78
60642;BME280;46837;52.446;-1.930;2023-04-08T04:34:09;101024.72;;;4.64;69.75
60642;BME280;46837;52.446;-1.930;2023-04-08T04:35:09;101026.16;;;4.62;69.93
60642;BME280;46837;52.446;-1.930;2023-04-08T04:36:09;101026.09;;;4.61;70.00
60642;BME280;46837;52.446;-1.930;2023-04-08T04:37:09;101029.17;;;4.61;69.88
60642;BME280;46837;52.446;-1.930;2023-04-08T04:38:12;101030.58;;;4.63;69.83
60642;BME280;46837;52.446;-1.930;2023-04-08T04:39:09;101030.68;;;4.65;69.67
60642;BME280;46837;52.446;-1.930;2023-04-08T04:40:09;101032.36;;;4.63;69.57
60642;BME280;46837;52.446;-1.930;2023-04-08T04:41:09;101033.61;;;4.64;69.57
60642;BME280;46837;52.446;-1.930;2023-04-08T04:42:09;101035.66;;;4.62;69.53
60642;BME280;46837;52.446;-1.930;2023-04-08T04:43:09;101033.87;;;4.63;69.49
60642;BME280;46837;52.446;-1.930;2023-04-08T04:44:09;101036.16;;;4.61;69.41
60642;BME280;46837;52.446;-1.930;2023-04-08T04:45:09;101036.31;;;4.62;69.30
60642;BME280;46837;52.446;-1.930;2023-04-08T04:46:10;101034.29;;;4.61;69.21
60642;BME280;46837;52.446;-1.930;2023-04-08T04:47:09;101032.70;;;4.62;69.23
60642;BME280;46837;52.446;-1.930;2023-04-08T04:48:09;101039.60;;;4.57;69.26
60642;BME280;46837;52.446;-1.930;2023-04-08T04:49:09;101038.99;;;4.57;69.37
60642;BME280;46837;52.446;-1.930;2023-04-08T04:50:09;101039.80;;;4.56;69.36
60642;BME280;46837;52.446;-1.930;2023-04-08T04:51:09;101041.89;;;4.55;69.33
60642;BME280;46837;52.446;-1.930;2023-04-08T04:52:09;101042.88;;;4.53;69.38
60642;BME280;46837;52.446;-1.930;2023-04-08T04:53:09;101045.57;;;4.52;69.46
60642;BME280;46837;52.446;-1.930;2023-04-08T04:54:09;101046.85;;;4.54;69.52
60642;BME280;46837;52.446;-1.930;2023-04-08T04:55:09;101048.29;;;4.53;69.54
60642;BME280;46837;52.446;-1.930;2023-04-08T04:56:09;101046.63;;;4.51;69.60
60642;BME280;46837;52.446;-1.930;2023-04-08T04:57:09;101050.83;;;4.49;69.79
60642;BME280;46837;52.446;-1.930;2023-04-08T04:58:09;101051.09;;;4.51;69.80
60642;BME280;46837;52.446;-1.930;2023-04-08T04:59:09;101049.75;;;4.53;69.84
60642;BME280;46837;52.446;-1.930;2023-04-08T05:00:09;101049.33;;;4.53;69.78
60642;BME280;46837;52.446;-1.930;2023-04-08T05:01:09;101050.14;;;4.48;69.84
60642;BME280;46837;52.446;-1.930;2023-04-08T05:02:09;101053.43;;;4.48;69.90
60642;BME280;46837;52.446;-1.930;2023-04-08T05:03:09;101054.88;;;4.45;69.87
60642;BME280;46837;52.446;-1.930;2023-04-08T05:04:09;101056.62;;;4.45;69.92
60642;BME280;46837;52.446;-1.930;2023-04-08T05:05:09;101057.67;;;4.46;69.82
60642;BME280;46837;52.446;-1.930;2023-04-08T05:06:09;101059.24;;;4.47;69.73
60642;BME280;46837;52.446;-1.930;2023-04-08T05:07:09;101057.53;;;4.49;69.59
60642;BME280;46837;52.446;-1.930;2023-04-08T05:08:09;101058.43;;;4.47;69.50
60642;BME280;46837;52.446;-1.930;2023-04-08T05:09:09;101058.26;;;4.48;69.47
60642;BME280;46837;52.446;-1.930;2023-04-08T05:10:09;101059.00;;;4.48;69.48
60642;BME280;46837;52.446;-1.930;2023-04-08T05:11:11;101057.51;;;4.46;69.36
60642;BME280;46837;52.446;-1.930;2023-04-08T05:12:09;101059.02;;;4.45;69.29
60642;BME280;46837;52.446;-1.930;2023-04-08T05:13:09;101060.71;;;4.46;69.34
60642;BME280;46837;52.446;-1.930;2023-04-08T05:14:09;101061.93;;;4.47;69.25
60642;BME280;46837;52.446;-1.930;2023-04-08T05:15:09;101067.59;;;4.42;69.25
60642;BME280;46837;52.446;-1.930;2023-04-08T05:16:09;101065.89;;;4.37;69.29
60642;BME280;46837;52.446;-1.930;2023-04-08T05:17:09;101067.73;;;4.35;69.39
60642;BME280;46837;52.446;-1.930;2023-04-08T05:18:09;101068.44;;;4.32;69.51
60642;BME280;46837;52.446;-1.930;2023-04-08T05:19:09;101073.73;;;4.31;69.60
60642;BME280;46837;52.446;-1.930;2023-04-08T05:20:09;101079.41;;;4.30;69.67
60642;BME280;46837;52.446;-1.930;2023-04-08T05:21:09;101073.85;;;4.31;69.75